Tiempo atmosférico en la estación meteorológica de Fresno de Cantiespino, Segovia (993 m.)



Fecha
DESCASC
Temp. máxima en grados centígrados (hora)
DESCASC
Temp. mínima en grados centígrados (hora)
DESCASC
Temp. media en grados centígrados
DESCASC
Racha de viento máxima en m/sg (hora)
DESCASC
Velocidad máxima media en intervalos de 10 minutos(hora)
DESCASC
Precipitaciones diarias en mm
DESCASC
Precipitaciones de 00:00 a 06:00 en mm
DESCASC
Precipitaciones de 06:00 a 12:00 en mm
DESCASC
Precipitaciones de 12:00 a 18:00 en mm
DESCASC
Precipitaciones de 18:00 a 24:00 en mm
DESCASC

Gráficas

Temp. máximas Temp. mínimas Temp. medias Precipitaciones Rachas de viento máximas Velocidades máximas media en intervalos de 10 minutos

Datos horarios

Fecha y hora oficial Temperatura (ºC) Velocidad del viento (km/h) Dirección del viento Racha (km/h) Dirección de racha Precipitación (mm) Presión (hPa) Tendencia (hPa) Humedad (%)
2019-09-19 23:00:00 15.6 6 Sur 11 Sudoeste 0 -- -- 78
2019-09-19 22:00:00 16.4 7 Sur 10 Sur 0 -- -- 74
2019-09-19 21:00:00 18.6 5 Sur 9 Sur 0 -- -- 66
2019-09-19 20:00:00 22.2 2 Sudoeste 18 Sur 0 -- -- 50
2019-09-19 19:00:00 22.3 8 Sudeste 22 Este 0 -- -- 53
2019-09-19 18:00:00 24.4 7 Este 15 Nordeste 0 -- -- 45
2019-09-19 17:00:00 24.9 8 Oeste 18 Sudoeste 0 -- -- 41
2019-09-19 16:00:00 25.4 5 Sudoeste 24 Oeste 0 -- -- 42
2019-09-19 15:00:00 25.6 9 Oeste 25 Oeste 0 -- -- 41
2019-09-19 14:00:00 24.2 14 Oeste 31 Noroeste 0 -- -- 43
2019-09-19 13:00:00 23.1 10 Noroeste 16 Norte 0 -- -- 49
2019-09-19 12:00:00 21.1 4 Norte 8 Norte 0 -- -- 57
2019-09-19 11:00:00 18.2 5 Norte 9 Nordeste 0 -- -- 71
2019-09-19 10:00:00 15.2 0 Calma 3 Nordeste 0 -- -- 82
2019-09-19 09:00:00 11 0 Calma 7 Sudoeste 0 -- -- 95
2019-09-19 08:00:00 8.9 5 Sur 9 Sur 0 -- -- 94
2019-09-19 07:00:00 9.2 7 Sudoeste 9 Sudoeste 0 -- -- 94
2019-09-19 06:00:00 10 0 Calma 11 Sudoeste 0 -- -- 92
2019-09-19 05:00:00 10.2 9 Sudoeste 11 Sur 0 -- -- 94
2019-09-19 04:00:00 10.5 2 Sudoeste 10 Sudoeste 0 -- -- 92
2019-09-19 03:00:00 11 7 Sudoeste 10 Sur 0 -- -- 91
2019-09-19 02:00:00 11.6 8 Sur 10 Sur 0 -- -- 90
2019-09-19 01:00:00 12.6 7 Sur 9 Sudoeste 0 -- -- 87
2019-09-19 00:00:00 14.1 2 Sudoeste 10 Sur 0 -- -- 80
2019-09-18 23:00:00 15.1 6 Sudoeste 9 Sudoeste 0 -- -- 78
2019-09-18 22:00:00 16.7 0 Calma 5 Sudoeste 0 -- -- 74
2019-09-18 21:00:00 17.9 2 Este 11 Norte 0 -- -- 66
2019-09-18 20:00:00 20.8 10 Norte 22 Norte 0 -- -- 54
2019-09-18 19:00:00 23.4 14 Noroeste 21 Oeste 0 -- -- 47
2019-09-18 18:00:00 24.1 12 Oeste 21 Oeste 0 -- -- 44
2019-09-18 17:00:00 22.8 9 Noroeste 21 Noroeste 0 -- -- 48
2019-09-18 16:00:00 23.8 11 Oeste 22 Oeste 0 -- -- 48
2019-09-18 15:00:00 22.7 8 Sudoeste 23 Oeste 0 -- -- 48
2019-09-18 14:00:00 21.7 9 Oeste 21 Sudoeste 0 -- -- 49
2019-09-18 13:00:00 19.6 4 Oeste 9 Noroeste 0 -- -- 64
2019-09-18 12:00:00 17.7 2 Sudeste 11 Este 0 -- -- 74
2019-09-18 11:00:00 16.1 6 Este 9 Nordeste 0 -- -- 83
2019-09-18 10:00:00 14.4 0 Calma 5 Sur 0 -- -- 93
2019-09-18 09:00:00 13.2 2 Sudeste 9 Sudoeste 0 -- -- 95
2019-09-18 08:00:00 12.6 0 Calma 8 Sudoeste 0 -- -- 95
2019-09-18 07:00:00 12.9 3 Sudeste 7 Sur 0 -- -- 95
2019-09-18 06:00:00 13 5 Norte 12 Norte 0 -- -- 95
2019-09-18 05:00:00 13.2 4 Norte 9 Norte 0 -- -- 94
2019-09-18 04:00:00 13.5 4 Nordeste 12 Nordeste 0 -- -- 92
2019-09-18 03:00:00 14 5 Nordeste 15 Este 0 -- -- 91
2019-09-18 02:00:00 14.1 8 Este 13 Este 0 -- -- 91
2019-09-18 01:00:00 14.4 2 Nordeste 19 Nordeste 1 -- -- 88
2019-09-18 00:00:00 14.7 14 Oeste 35 Oeste 0.2 -- -- 86
2019-09-17 23:00:00 15.8 26 Oeste 49 Sudoeste 0 -- -- 74
2019-09-17 22:00:00 18.8 22 Sudoeste 55 Sudoeste 0 -- -- 63
2019-09-17 21:00:00 20.9 10 Oeste 15 Oeste 0 -- -- 58
2019-09-15 18:00:00 -- -- -- -- -- -- -- -- --
2019-09-15 17:00:00 -- -- -- -- -- -- -- -- --
2019-09-15 16:00:00 15.4 9 Sur 22 Sudoeste 1.4 -- -- 93
2019-09-15 15:00:00 16.7 9 Nordeste 18 Norte 0 -- -- 85
2019-09-15 14:00:00 16.9 8 Nordeste 15 Nordeste 2 -- -- 87
2019-09-15 13:00:00 14.8 5 Sudeste 32 Nordeste 6.4 -- -- 89
2019-09-15 12:00:00 17.4 11 Sudeste 32 Sudeste 0 -- -- 65
2019-09-15 11:00:00 17.8 24 Sudeste 35 Este 0 -- -- 59
2019-09-15 10:00:00 16.2 21 Este 32 Este 0 -- -- 64
2019-09-15 09:00:00 15.5 10 Este 26 Este 0 -- -- 68
2019-09-15 08:00:00 14.8 5 Nordeste 17 Nordeste 0 -- -- 71
2019-09-15 07:00:00 15.1 9 Este 28 Este 0 -- -- 71
2019-09-15 06:00:00 15.9 13 Este 24 Este 0 -- -- 70
2019-09-15 05:00:00 16.1 15 Este 26 Sudeste 0 -- -- 69
2019-09-15 04:00:00 14.3 15 Este 27 Este 0 -- -- 78
2019-09-15 03:00:00 15.8 18 Este 28 Este 0 -- -- 71
2019-09-15 02:00:00 15.6 10 Nordeste 25 Este 0 -- -- 75
2019-09-15 01:00:00 15.9 8 Este 22 Este 0 -- -- 75
2019-09-15 00:00:00 15.1 5 Este 15 Este 0 -- -- 82
2019-09-14 23:00:00 14 9 Norte 11 Norte 0 -- -- 92
2019-09-14 22:00:00 15.1 6 Norte 13 Oeste 0 -- -- 90
2019-09-14 21:00:00 15.9 5 Noroeste 14 Este 0.2 -- -- 87
2019-09-14 20:00:00 15.8 8 Nordeste 21 Sudoeste 0.4 -- -- 87
2019-09-14 19:00:00 16.9 12 Sudoeste 30 Sur 0.2 -- -- 82
2019-09-14 18:00:00 17.6 10 Sur 37 Sur 0 -- -- 70
2019-09-14 17:00:00 22.6 15 Sudeste 24 Sudeste 0 -- -- 46
2019-09-14 16:00:00 23.2 15 Sudeste 37 Sur 0 -- -- 45
2019-09-14 15:00:00 24.2 14 Sudeste 33 Sudeste 0 -- -- 43
2019-09-14 14:00:00 22.7 21 Este 32 Este 0 -- -- 47
2019-09-14 13:00:00 20.4 18 Este 37 Este 0 -- -- 55
2019-09-14 12:00:00 18 21 Este 36 Este 0 -- -- 64
2019-09-14 11:00:00 16.6 17 Este 31 Nordeste 0 -- -- 70
2019-09-14 10:00:00 14.2 19 Nordeste 29 Nordeste 0 -- -- 84
2019-09-14 09:00:00 14 13 Este 21 Este 0 -- -- 85
2019-09-14 08:00:00 13.5 4 Este 15 Nordeste 0 -- -- 86
2019-09-14 07:00:00 13.8 11 Nordeste 19 Este 0 -- -- 84
2019-09-14 06:00:00 -- -- -- -- -- -- -- -- --
2019-09-14 05:00:00 -- -- -- -- -- -- -- -- --
2019-09-14 04:00:00 14.9 11 Este 23 Este 0 -- -- 82
2019-09-14 03:00:00 15.4 10 Este 22 Este 0 -- -- 78
2019-09-14 02:00:00 15.2 12 Este 21 Este 0 -- -- 78
2019-09-14 01:00:00 14.4 9 Este 28 Este 0 -- -- 81
2019-09-14 00:00:00 14.5 17 Este 26 Este 0 -- -- 81
2019-09-13 23:00:00 14.5 17 Este 23 Este 0 -- -- 80
2019-09-13 22:00:00 15 14 Nordeste 21 Este 0 -- -- 77
2019-09-13 21:00:00 15.8 13 Este 26 Este 0 -- -- 77
2019-09-13 20:00:00 16.4 18 Este 28 Este 0 -- -- 75
2019-09-13 19:00:00 16.3 17 Este 31 Nordeste 0 -- -- 75
2019-09-13 18:00:00 15.4 18 Este 36 Este 0 -- -- 80
2019-09-13 17:00:00 15 23 Este 37 Este 0.2 -- -- 81
2019-09-13 16:00:00 15.8 19 Este 52 Sudeste 0.2 -- -- 74
2019-09-13 15:00:00 18.7 32 Este 50 Este 0 -- -- 58
2019-09-13 14:00:00 21.2 31 Este 47 Este 0 -- -- 39
2019-09-13 13:00:00 23.1 30 Este 52 Este 0 -- -- 36
2019-09-13 12:00:00 22.1 26 Este 41 Este 0 -- -- 39
2019-09-13 11:00:00 19.6 18 Este 32 Este 0 -- -- 50
2019-09-13 10:00:00 19.4 14 Este 30 Este 0 -- -- 50
2019-09-13 09:00:00 16.5 13 Este 24 Este 0 -- -- 58
2019-09-13 08:00:00 12.6 8 Nordeste 16 Este 0 -- -- 72
2019-09-13 07:00:00 10.9 3 Norte 4 Norte 0 -- -- 75
2019-09-13 06:00:00 10.4 2 Sudoeste 4 Sur 0 -- -- 76
2019-09-13 05:00:00 13.2 3 Noroeste 15 Noroeste 0 -- -- 67
2019-09-13 04:00:00 13.7 5 Este 13 Sudeste 0 -- -- 66
2019-09-13 03:00:00 15 8 Este 18 Este 0 -- -- 61
2019-09-13 02:00:00 15.1 10 Este 21 Este 0 -- -- 62
2019-09-13 01:00:00 16.1 17 Este 24 Este 0 -- -- 60
2019-09-13 00:00:00 16.2 12 Este 16 Este 0 -- -- 59
2019-09-12 23:00:00 17.2 9 Este 14 Este 0 -- -- 56
2019-09-12 22:00:00 18.7 7 Este 15 Este 0 -- -- 52
2019-09-12 21:00:00 21.1 11 Sudeste 26 Este 0 -- -- 46
2019-09-12 20:00:00 23.3 16 Este 34 Este 0 -- -- 40
2019-09-12 19:00:00 24.9 23 Este 42 Nordeste 0 -- -- 37
2019-09-12 18:00:00 25.4 20 Este 40 Este 0 -- -- 34
2019-09-12 17:00:00 25.5 21 Este 41 Este 0 -- -- 35
2019-09-12 16:00:00 25.4 22 Este 43 Este 0 -- -- 35
2019-09-12 15:00:00 24.6 27 Este 42 Este 0 -- -- 36
2019-09-12 14:00:00 23.8 24 Este 46 Este 0 -- -- 39
2019-09-12 13:00:00 22.7 27 Este 46 Este 0 -- -- 42
2019-09-12 12:00:00 21.6 21 Este 40 Este 0 -- -- 45
2019-09-12 11:00:00 20 20 Este 36 Nordeste 0 -- -- 51
2019-09-12 10:00:00 17.2 13 Nordeste 19 Nordeste 0 -- -- 57
2019-09-12 09:00:00 11.3 4 Nordeste 9 Norte 0 -- -- 75
2019-09-12 08:00:00 8.9 6 Norte 9 Norte 0 -- -- 78
2019-09-12 07:00:00 9.9 2 Nordeste 20 Sudeste 0 -- -- 73
2019-09-12 06:00:00 12.3 11 Este 22 Sudeste 0 -- -- 66
2019-09-12 05:00:00 12.2 12 Sudeste 21 Sudeste 0 -- -- 67
2019-09-12 04:00:00 9.4 4 Norte 7 Norte 0 -- -- 78
2019-09-12 03:00:00 9.7 4 Norte 9 Nordeste 0 -- -- 77
2019-09-12 02:00:00 10.1 0 Calma 6 Este 0 -- -- 74
2019-09-12 01:00:00 10.5 3 Sudoeste 9 Sudoeste 0 -- -- 73
2019-09-12 00:00:00 12.2 2 Nordeste 13 Este 0 -- -- 66
2019-09-11 23:00:00 13.9 8 Sudeste 13 Sudeste 0 -- -- 61
2019-09-11 22:00:00 15 4 Sudeste 13 Este 0 -- -- 56
2019-09-11 21:00:00 17.8 8 Este 23 Nordeste 0 -- -- 48
2019-09-11 20:00:00 20.1 16 Nordeste 31 Este 0 -- -- 42
2019-09-11 19:00:00 21.1 14 Este 33 Nordeste 0 -- -- 40
2019-09-11 18:00:00 22.3 18 Nordeste 32 Nordeste 0 -- -- 37
2019-09-11 17:00:00 22 10 Nordeste 29 Nordeste 0 -- -- 38
2019-09-11 16:00:00 21.7 15 Norte 38 Norte 0 -- -- 40
2019-09-11 15:00:00 20.3 12 Norte 37 Nordeste 0 -- -- 42
2019-09-11 14:00:00 19.6 14 Norte 28 Nordeste 0 -- -- 46
2019-09-11 13:00:00 18.3 21 Nordeste 33 Nordeste 0 -- -- 48
2019-09-11 12:00:00 16.6 23 Norte 33 Norte 0 -- -- 54
2019-09-11 11:00:00 14.3 19 Norte 36 Norte 0 -- -- 65
2019-09-11 10:00:00 13.1 21 Norte 30 Norte 0 -- -- 74
2019-09-11 09:00:00 10.8 16 Norte 26 Noroeste 0 -- -- 84
2019-09-11 08:00:00 10.2 15 Norte 26 Norte 0 -- -- 86
2019-09-11 07:00:00 9.8 12 Noroeste 24 Noroeste 0 -- -- 87
2019-09-11 06:00:00 9.7 12 Noroeste 30 Noroeste 0 -- -- 86
2019-09-11 05:00:00 9.6 16 Noroeste 28 Noroeste 0 -- -- 87
2019-09-11 04:00:00 8.4 8 Noroeste 26 Norte 0 -- -- 86
2019-09-11 03:00:00 9 11 Noroeste 16 Noroeste 0 -- -- 78
2019-09-11 02:00:00 8.9 7 Norte 26 Norte 0 -- -- 81
2019-09-11 01:00:00 9.6 19 Norte 29 Norte 0 -- -- 82
2019-09-11 00:00:00 9.8 15 Norte 34 Norte 0 -- -- 83
2019-09-10 23:00:00 10.3 19 Norte 26 Noroeste 0 -- -- 81
2019-09-10 22:00:00 10.6 19 Norte 32 Norte 0 -- -- 83
2019-09-10 21:00:00 10.9 26 Norte 42 Norte 0 -- -- 83
2019-09-10 20:00:00 11 26 Norte 55 Norte 0 -- -- 81
2019-09-10 19:00:00 11.3 30 Norte 43 Norte 0.4 -- -- 81
2019-09-10 18:00:00 10 2 Oeste 21 Norte 0.4 -- -- 82
2019-09-10 17:00:00 9.9 16 Norte 36 Norte 1 -- -- 81
2019-09-10 16:00:00 10.7 25 Norte 36 Norte 0.2 -- -- 77
2019-09-10 15:00:00 10.8 28 Norte 39 Noroeste 0 -- -- 77
2019-09-10 14:00:00 12.1 28 Noroeste 39 Noroeste 0 -- -- 67
2019-09-10 13:00:00 13.1 23 Noroeste 39 Noroeste 0 -- -- 49
2019-09-10 12:00:00 12.6 21 Noroeste 36 Noroeste 0 -- -- 50
2019-09-10 11:00:00 11.9 11 Noroeste 21 Noroeste 0 -- -- 54
2019-09-10 10:00:00 11.3 15 Norte 24 Noroeste 0 -- -- 58
2019-09-10 09:00:00 9.6 9 Norte 22 Noroeste 0 -- -- 66
2019-09-10 08:00:00 9.3 17 Norte 32 Noroeste 0 -- -- 66
2019-09-10 07:00:00 9.7 21 Norte 33 Norte 0 -- -- 64
2019-09-10 06:00:00 10.5 15 Norte 35 Norte 0 -- -- 70
2019-09-10 05:00:00 11.1 18 Noroeste 27 Noroeste 0 -- -- 70
2019-09-10 04:00:00 11.8 7 Oeste 21 Noroeste 0 -- -- 73
2019-09-10 03:00:00 12.4 13 Noroeste 24 Noroeste 0 -- -- 71
2019-09-10 02:00:00 13.9 5 Oeste 22 Noroeste 0 -- -- 66
2019-09-10 01:00:00 15.5 17 Noroeste 31 Noroeste 0 -- -- 61
2019-09-10 00:00:00 17.4 10 Sudoeste 24 Sudoeste 0 -- -- 38
2019-09-09 23:00:00 18.1 14 Sudoeste 24 Sudoeste 0 -- -- 32
2019-09-09 22:00:00 18.9 12 Sudoeste 21 Sudoeste 0 -- -- 31
2019-09-09 21:00:00 20.8 12 Sudoeste 27 Oeste 0 -- -- 29
2019-09-09 20:00:00 22.2 17 Oeste 33 Noroeste 0 -- -- 27
2019-09-09 19:00:00 23.4 25 Oeste 37 Oeste 0 -- -- 30
2019-09-09 18:00:00 24.2 22 Oeste 41 Oeste 0 -- -- 28
2019-09-09 17:00:00 25.7 27 Oeste 53 Sudoeste 0 -- -- 25
2019-09-09 16:00:00 26.4 24 Sudoeste 40 Sudoeste 0 -- -- 23
2019-09-09 15:00:00 26.3 27 Oeste 44 Oeste 0 -- -- 24
2019-09-09 14:00:00 25.6 25 Oeste 42 Oeste 0 -- -- 26
2019-09-09 13:00:00 24.8 23 Oeste 34 Oeste 0 -- -- 28
2019-09-09 12:00:00 23.6 16 Sudoeste 29 Oeste 0 -- -- 29
2019-09-09 11:00:00 21.7 16 Sudoeste 23 Oeste 0 -- -- 35
2019-09-09 10:00:00 16.6 2 Sur 5 Sudoeste 0 -- -- 53
2019-09-09 09:00:00 9.7 4 Sur 9 Sudoeste 0 -- -- 69
2019-09-09 08:00:00 5.1 8 Sudoeste 9 Sur 0 -- -- 78
2019-09-09 07:00:00 5.2 5 Sur 7 Sudoeste 0 -- -- 76
2019-09-09 06:00:00 5.9 7 Sur 9 Sudoeste 0 -- -- 74
2019-09-09 05:00:00 6.5 8 Sudoeste 9 Sudoeste 0 -- -- 74
2019-09-09 04:00:00 7.5 0 Calma 10 Sur 0 -- -- 67
2019-09-09 03:00:00 8.3 9 Sur 12 Sur 0 -- -- 68
2019-09-09 02:00:00 8.6 8 Sudoeste 12 Sur 0 -- -- 70
2019-09-09 01:00:00 10.2 10 Sur 12 Sudoeste 0 -- -- 65
2019-09-09 00:00:00 11.5 8 Sudoeste 11 Sur 0 -- -- 60
2019-09-08 23:00:00 13.5 5 Sur 8 Nordeste 0 -- -- 53
2019-09-08 22:00:00 16.4 2 Este 8 Norte 0 -- -- 45
2019-09-08 21:00:00 20.2 8 Norte 22 Noroeste 0 -- -- 35
2019-09-08 20:00:00 23.4 15 Noroeste 27 Noroeste 0 -- -- 30
2019-09-08 19:00:00 25.2 15 Noroeste 29 Noroeste 0 -- -- 25
2019-09-08 18:00:00 26.1 13 Noroeste 27 Oeste 0 -- -- 24
2019-09-08 17:00:00 26.4 16 Oeste 30 Norte 0 -- -- 25
2019-09-08 16:00:00 25.9 13 Noroeste 26 Norte 0 -- -- 29
2019-09-08 15:00:00 24.9 8 Este 21 Oeste 0 -- -- 32
2019-09-08 14:00:00 24 6 Noroeste 19 Noroeste 0 -- -- 31
2019-09-08 13:00:00 22.8 7 Norte 17 Norte 0 -- -- 35
2019-09-08 12:00:00 21.5 7 Nordeste 14 Este 0 -- -- 40
2019-09-08 11:00:00 19.1 4 Nordeste 11 Este 0 -- -- 48
2019-09-08 10:00:00 15.5 6 Este 12 Este 0 -- -- 57
2019-09-08 09:00:00 9.9 0 Calma 8 Sur 0 -- -- 73
2019-09-08 08:00:00 6.1 4 Sudoeste 12 Sudoeste 0 -- -- 77
2019-09-08 07:00:00 6.5 6 Sur 12 Sudoeste 0 -- -- 76
2019-09-08 06:00:00 8.5 6 Sudoeste 10 Este 0 -- -- 67
2019-09-08 05:00:00 12.9 7 Sudeste 18 Sudeste 0 -- -- 57
2019-09-08 04:00:00 13.1 9 Este 22 Este 0 -- -- 58
2019-09-08 03:00:00 13.9 14 Este 25 Este 0 -- -- 55
2019-09-08 02:00:00 14.1 12 Este 26 Este 0 -- -- 54
2019-09-08 01:00:00 15 14 Este 36 Este 0 -- -- 50
2019-09-08 00:00:00 15.7 14 Este 26 Este 0 -- -- 45
2019-09-07 23:00:00 16.7 15 Nordeste 23 Este 0 -- -- 40
2019-09-07 22:00:00 17.6 10 Nordeste 16 Este 0 -- -- 37
2019-09-07 21:00:00 20 12 Este 22 Norte 0 -- -- 32
2019-09-07 20:00:00 23 10 Norte 18 Nordeste 0 -- -- 26
2019-09-07 19:00:00 23.9 14 Norte 19 Norte 0 -- -- 28
2019-09-07 18:00:00 24.1 10 Nordeste 22 Nordeste 0 -- -- 29
2019-09-07 17:00:00 24.4 13 Norte 26 Norte 0 -- -- 29
2019-09-07 16:00:00 23.6 14 Norte 28 Norte 0 -- -- 30
2019-09-07 15:00:00 22.7 9 Norte 24 Este 0 -- -- 30
2019-09-07 14:00:00 21.8 8 Norte 24 Nordeste 0 -- -- 31
2019-09-07 13:00:00 20.5 17 Nordeste 28 Nordeste 0 -- -- 34
2019-09-07 12:00:00 19.2 14 Nordeste 33 Nordeste 0 -- -- 37
2019-09-07 11:00:00 16.9 17 Este 26 Nordeste 0 -- -- 43
2019-09-07 10:00:00 14.6 12 Este 32 Este 0 -- -- 49
2019-09-07 09:00:00 11.7 17 Este 31 Sudeste 0 -- -- 55
2019-09-07 08:00:00 9.4 9 Este 24 Este 0 -- -- 61
2019-09-07 07:00:00 10.4 18 Este 40 Este 0 -- -- 57
2019-09-07 06:00:00 10.3 20 Este 35 Este 0 -- -- 56
2019-09-07 05:00:00 11.6 15 Este 37 Este 0 -- -- 48
2019-09-07 04:00:00 12.6 18 Este 31 Este 0 -- -- 39
2019-09-07 03:00:00 11.4 9 Nordeste 20 Nordeste 0 -- -- 41
2019-09-07 02:00:00 11.7 13 Nordeste 21 Nordeste 0 -- -- 42
2019-09-07 01:00:00 12.1 11 Nordeste 20 Este 0 -- -- 47
2019-09-07 00:00:00 13.8 8 Este 19 Este 0 -- -- 46
2019-09-06 23:00:00 14.6 12 Nordeste 21 Norte 0 -- -- 44
2019-09-06 22:00:00 15.2 12 Nordeste 24 Norte 0 -- -- 45
2019-09-06 21:00:00 17.7 15 Noroeste 24 Norte 0 -- -- 38
2019-09-06 20:00:00 21.4 12 Norte 22 Nordeste 0 -- -- 24
2019-09-06 19:00:00 22.3 13 Nordeste 30 Norte 0 -- -- 23
2019-09-06 18:00:00 22.5 14 Norte 28 Norte 0 -- -- 21
2019-09-06 17:00:00 22.3 12 Norte 28 Norte 0 -- -- 23
2019-09-06 16:00:00 21.6 14 Nordeste 27 Nordeste 0 -- -- 26
2019-09-06 15:00:00 20.7 15 Nordeste 32 Nordeste 0 -- -- 28
2019-09-06 14:00:00 19.5 19 Nordeste 31 Nordeste 0 -- -- 32
2019-09-06 13:00:00 18 21 Nordeste 32 Este 0 -- -- 36
2019-09-06 12:00:00 16.5 18 Este 33 Nordeste 0 -- -- 39
2019-09-06 11:00:00 15.2 18 Este 28 Nordeste 0 -- -- 44
2019-09-06 10:00:00 9.9 5 Norte 8 Nordeste 0 -- -- 63
2019-09-06 09:00:00 5 0 Calma 5 Sur 0 -- -- 81
2019-09-06 08:00:00 1.8 3 Sudoeste 10 Sudoeste 0 -- -- 87
2019-09-06 07:00:00 2.2 4 Sudoeste 9 Sur 0 -- -- 87
2019-09-06 06:00:00 2.6 4 Sudoeste 11 Sur 0 -- -- 85
2019-09-06 05:00:00 2.9 9 Sudoeste 10 Sudoeste 0 -- -- 84
2019-09-06 04:00:00 3.4 8 Sudoeste 13 Sur 0 -- -- 82
2019-09-06 03:00:00 4.7 7 Sudoeste 9 Sudoeste 0 -- -- 77
2019-09-06 02:00:00 6.5 5 Sudoeste 8 Sur 0 -- -- 72
2019-09-06 01:00:00 8.8 0 Calma 4 Nordeste 0 -- -- 67
2019-09-06 00:00:00 9.9 3 Nordeste 10 Nordeste 0 -- -- 63
2019-09-05 23:00:00 11.4 8 Norte 12 Norte 0 -- -- 60
2019-09-05 22:00:00 13.3 9 Nordeste 27 Norte 0 -- -- 55
2019-09-05 21:00:00 15.1 21 Norte 33 Norte 0 -- -- 50
2019-09-05 20:00:00 18.2 24 Norte 30 Norte 0 -- -- 43
2019-09-05 19:00:00 20.5 20 Norte 33 Norte 0 -- -- 34
2019-09-05 18:00:00 21.5 14 Norte 31 Norte 0 -- -- 32
2019-09-05 17:00:00 21.4 14 Norte 31 Norte 0 -- -- 32
2019-09-05 16:00:00 21.4 17 Norte 31 Norte 0 -- -- 33
2019-09-05 15:00:00 21.7 19 Norte 35 Norte 0 -- -- 33
2019-09-05 14:00:00 20.6 12 Nordeste 27 Nordeste 0 -- -- 38
2019-09-05 13:00:00 19.8 12 Norte 24 Norte 0 -- -- 42
2019-09-05 12:00:00 18.2 14 Nordeste 27 Nordeste 0 -- -- 49
2019-09-05 11:00:00 17 9 Nordeste 20 Norte 0 -- -- 58
2019-09-05 10:00:00 15.3 13 Norte 18 Norte 0 -- -- 65
2019-09-05 09:00:00 11.8 2 Nordeste 5 Sur 0 -- -- 75
2019-09-05 08:00:00 7.3 0 Calma 5 Norte 0 -- -- 83
2019-09-05 07:00:00 9 2 Norte 7 Noroeste 0 -- -- 78
2019-09-05 06:00:00 9.1 3 Norte 6 Norte 0 -- -- 78
2019-09-05 05:00:00 10.2 3 Este 9 Nordeste 0 -- -- 77
2019-09-05 04:00:00 11.1 7 Nordeste 15 Norte 0 -- -- 76
2019-09-05 03:00:00 12.7 12 Nordeste 15 Nordeste 0 -- -- 72
2019-09-05 02:00:00 13 5 Norte 14 Nordeste 0 -- -- 70
2019-09-05 01:00:00 14.4 11 Norte 15 Norte 0 -- -- 66
2019-09-05 00:00:00 15.9 11 Norte 16 Norte 0 -- -- 59
2019-09-04 23:00:00 16.9 8 Norte 16 Norte 0 -- -- 54
2019-09-04 22:00:00 19.3 12 Norte 24 Noroeste 0 -- -- 47
2019-09-04 21:00:00 22.6 14 Noroeste 28 Norte 0 -- -- 38
2019-09-04 20:00:00 26.3 19 Norte 31 Noroeste 0 -- -- 29
2019-09-04 19:00:00 28 18 Norte 29 Noroeste 0 -- -- 24
2019-09-04 18:00:00 28.8 17 Norte 28 Noroeste 0 -- -- 22
2019-09-04 17:00:00 28.9 16 Norte 26 Noroeste 0 -- -- 23
2019-09-04 16:00:00 28.8 10 Noroeste 26 Noroeste 0 -- -- 23
2019-09-04 15:00:00 28.3 13 Norte 28 Noroeste 0 -- -- 24
2019-09-04 14:00:00 27.8 13 Norte 25 Noroeste 0 -- -- 25
2019-09-04 13:00:00 27.4 13 Norte 23 Norte 0 -- -- 22
2019-09-04 12:00:00 25.8 8 Norte 17 Norte 0 -- -- 24
2019-09-04 11:00:00 23.7 2 Sur 8 Nordeste 0 -- -- 31
2019-09-04 10:00:00 16.8 4 Nordeste 6 Norte 0 -- -- 46
2019-09-04 09:00:00 11.8 2 Sur 8 Sudoeste 0 -- -- 63
2019-09-04 08:00:00 6.5 5 Sudoeste 12 Sur 0 -- -- 73
2019-09-04 07:00:00 6.9 6 Sudoeste 8 Sur 0 -- -- 71
2019-09-04 06:00:00 7.7 6 Sur 10 Sur 0 -- -- 69
2019-09-04 05:00:00 8 8 Sur 11 Sudoeste 0 -- -- 66
2019-09-04 04:00:00 8.3 9 Sudoeste 12 Sudoeste 0 -- -- 64
2019-09-04 03:00:00 9.2 8 Sur 10 Sur 0 -- -- 60
2019-09-04 02:00:00 10.9 5 Sudoeste 14 Sudoeste 0 -- -- 54
2019-09-04 01:00:00 11.9 8 Sudoeste 13 Sudoeste 0 -- -- 51
2019-09-04 00:00:00 12.5 10 Sudoeste 13 Sudoeste 0 -- -- 50
2019-09-03 23:00:00 14 10 Sur 13 Sur 0 -- -- 46
2019-09-03 22:00:00 16.3 12 Sur 13 Sur 0 -- -- 41
2019-09-03 21:00:00 22.6 5 Noroeste 15 Noroeste 0 -- -- 26
2019-09-03 20:00:00 27.2 12 Noroeste 21 Noroeste 0 -- -- 22
2019-09-03 19:00:00 28.3 16 Noroeste 23 Oeste 0 -- -- 21
2019-09-03 18:00:00 28.8 13 Oeste 28 Oeste 0 -- -- 20
2019-09-03 17:00:00 28.7 15 Oeste 35 Noroeste 0 -- -- 22
2019-09-03 16:00:00 28.8 19 Oeste 37 Oeste 0 -- -- 26
2019-09-03 15:00:00 28.4 16 Oeste 32 Oeste 0 -- -- 27
2019-09-03 14:00:00 28 12 Noroeste 27 Noroeste 0 -- -- 28
2019-09-03 13:00:00 25.5 10 Noroeste 18 Noroeste 0 -- -- 32
2019-09-03 12:00:00 22.8 9 Noroeste 18 Noroeste 0 -- -- 36
2019-09-03 11:00:00 19.3 4 Noroeste 9 Nordeste 0 -- -- 49
2019-09-03 10:00:00 15 3 Norte 7 Norte 0 -- -- 60
2019-09-03 09:00:00 11.2 0 Calma 6 Sudoeste 0 -- -- 78
2019-09-03 08:00:00 7.3 5 Sudoeste 9 Sur 0 -- -- 85
2019-09-03 07:00:00 7.9 7 Sudoeste 9 Sur 0 -- -- 82
2019-09-03 06:00:00 8.4 6 Sudoeste 9 Sur 0 -- -- 82
2019-09-03 05:00:00 8.3 9 Sudoeste 10 Sur 0 -- -- 82
2019-09-03 04:00:00 8.9 7 Sudoeste 10 Sur 0 -- -- 76
2019-09-03 03:00:00 9.5 7 Sudoeste 10 Sur 0 -- -- 74
2019-09-03 02:00:00 10.9 5 Sudoeste 8 Sudoeste 0 -- -- 67
2019-09-03 01:00:00 12.1 8 Sur 10 Sur 0 -- -- 63
2019-09-03 00:00:00 14.7 7 Noroeste 10 Noroeste 0 -- -- 56
2019-09-02 23:00:00 16.7 4 Sudoeste 14 Este 0 -- -- 48
2019-09-02 22:00:00 19.3 2 Nordeste 16 Noroeste 0 -- -- 39
2019-09-02 21:00:00 22.4 10 Noroeste 19 Norte 0 -- -- 36
2019-09-02 20:00:00 25.2 17 Norte 23 Norte 0 -- -- 33
2019-09-02 19:00:00 26.5 13 Norte 29 Norte 0 -- -- 35
2019-09-02 18:00:00 26.8 14 Nordeste 26 Norte 0 -- -- 36
2019-09-02 17:00:00 26.8 10 Nordeste 23 Norte 0 -- -- 36
2019-09-02 16:00:00 26.5 13 Norte 23 Norte 0 -- -- 36
2019-09-02 15:00:00 26.2 15 Norte 28 Norte 0 -- -- 36
2019-09-02 14:00:00 25 16 Nordeste 27 Nordeste 0 -- -- 39
2019-09-02 13:00:00 23.3 19 Nordeste 33 Nordeste 0 -- -- 45
2019-09-02 12:00:00 21.7 23 Nordeste 32 Nordeste 0 -- -- 48
2019-09-02 11:00:00 19.9 21 Nordeste 32 Nordeste 0 -- -- 53
2019-09-02 10:00:00 17.8 20 Nordeste 29 Este 0 -- -- 59
2019-09-02 09:00:00 16 19 Nordeste 29 Este 0 -- -- 67
2019-09-02 08:00:00 14.2 19 Nordeste 28 Este 0 -- -- 73
2019-09-02 07:00:00 14.3 17 Nordeste 27 Nordeste 0 -- -- 75
2019-09-02 06:00:00 14.7 18 Nordeste 27 Este 0 -- -- 75
2019-09-02 05:00:00 14.8 15 Nordeste 28 Este 0 -- -- 75
2019-09-02 04:00:00 15.4 17 Nordeste 32 Este 0 -- -- 75
2019-09-02 03:00:00 15.9 17 Este 39 Este 0 -- -- 75
2019-09-02 02:00:00 16.6 20 Este 41 Este 0 -- -- 72
2019-09-02 01:00:00 17.2 26 Este 39 Este 0 -- -- 70
2019-09-02 00:00:00 17.7 25 Este 36 Sudeste 0 -- -- 71
2019-09-01 23:00:00 19.4 19 Este 31 Nordeste 0 -- -- 67
2019-09-01 22:00:00 19.6 10 Nordeste 20 Norte 0 -- -- 58
2019-09-01 21:00:00 21.3 16 Norte 28 Norte 0 -- -- 52
2019-09-01 20:00:00 24.6 18 Noroeste 25 Noroeste 0 -- -- 44
2019-09-01 19:00:00 25.6 13 Noroeste 22 Norte 0 -- -- 43
2019-09-01 18:00:00 25.5 16 Norte 26 Noroeste 0 -- -- 44
2019-09-01 17:00:00 26.9 17 Noroeste 28 Noroeste 0 -- -- 39
2019-09-01 16:00:00 27.5 18 Norte 37 Norte 0 -- -- 40
2019-09-01 15:00:00 28.6 14 Norte 23 Norte 0 -- -- 39
2019-09-01 14:00:00 27 19 Norte 30 Norte 0 -- -- 43
2019-09-01 13:00:00 27.1 11 Noroeste 21 Noroeste 0 -- -- 35
2019-09-01 12:00:00 25.7 9 Oeste 18 Oeste 0 -- -- 40
2019-09-01 11:00:00 24.6 9 Oeste 19 Sudoeste 0 -- -- 43
2019-09-01 10:00:00 21.9 13 Sudoeste 22 Sudoeste 0 -- -- 51
2019-09-01 09:00:00 18.8 8 Sudoeste 17 Oeste 0 -- -- 59
2019-09-01 08:00:00 15.7 6 Sur 13 Sur 0 -- -- 69
2019-09-01 07:00:00 15.8 8 Sur 12 Sur 0 -- -- 68
2019-09-01 06:00:00 15.3 9 Sudoeste 11 Sudoeste 0 -- -- 70
2019-09-01 05:00:00 15 7 Sudoeste 11 Sur 0 -- -- 71
2019-09-01 04:00:00 16.7 3 Sudoeste 6 Oeste 0 -- -- 65
2019-09-01 03:00:00 17.5 4 Nordeste 8 Sur 0 -- -- 61
2019-09-01 02:00:00 17.9 6 Nordeste 11 Norte 0 -- -- 58
2019-09-01 01:00:00 19.5 9 Sur 11 Sur 0 -- -- 52
2019-09-01 00:00:00 19.6 7 Sur 9 Sur 0 -- -- 52
2019-08-31 23:00:00 20.6 8 Sur 12 Sudoeste 0 -- -- 50
2019-08-31 22:00:00 22.9 9 Sur 16 Sur 0 -- -- 44
2019-08-31 21:00:00 25.1 9 Sur 20 Sudoeste 0 -- -- 39
2019-08-31 20:00:00 28.6 9 Sur 24 Sudeste 0 -- -- 33
2019-08-31 19:00:00 30.2 12 Sur 21 Sudeste 0 -- -- 30
2019-08-31 18:00:00 32 7 Noroeste 21 Oeste 0 -- -- 27
2019-08-31 17:00:00 31.3 5 Norte 19 Norte 0 -- -- 28
2019-08-31 16:00:00 31 10 Noroeste 24 Oeste 0 -- -- 27
2019-08-31 15:00:00 30.6 10 Oeste 25 Oeste 0 -- -- 28
2019-08-31 14:00:00 29.7 11 Oeste 27 Oeste 0 -- -- 30
2019-08-31 13:00:00 28.6 14 Oeste 24 Oeste 0 -- -- 31
2019-08-31 12:00:00 26.8 10 Noroeste 16 Noroeste 0 -- -- 37
2019-08-31 11:00:00 23.4 4 Noroeste 8 Noroeste 0 -- -- 46
2019-08-31 10:00:00 19 2 Noroeste 8 Norte 0 -- -- 59
2019-08-31 09:00:00 15.1 0 Calma 5 Oeste 0 -- -- 77
2019-08-31 08:00:00 11.9 6 Sudoeste 8 Sudoeste 0 -- -- 84
2019-08-31 07:00:00 11.8 3 Sur 10 Sudoeste 0 -- -- 82
2019-08-31 06:00:00 12.6 6 Sur 9 Sur 0 -- -- 83
2019-08-31 05:00:00 14.1 5 Sudoeste 7 Sudoeste 0 -- -- 79
2019-08-31 04:00:00 14 3 Nordeste 10 Sudoeste 0 -- -- 76
2019-08-31 03:00:00 16 8 Sudoeste 11 Sur 0 -- -- 68
2019-08-31 02:00:00 16.5 7 Sur 17 Sudoeste 0 -- -- 64
2019-08-31 01:00:00 16.6 3 Sudoeste 9 Nordeste 0 -- -- 73
2019-08-31 00:00:00 21.6 5 Sudoeste 24 Sur 0 -- -- 46
2019-08-30 23:00:00 20.8 10 Sur 18 Sudeste 0 -- -- 49
2019-08-30 22:00:00 19.3 7 Sudoeste 17 Este 0 -- -- 62
2019-08-30 21:00:00 21.9 7 Sur 21 Oeste 0 -- -- 51
2019-08-30 20:00:00 25.6 14 Sudoeste 28 Oeste 0 -- -- 41
2019-08-30 19:00:00 27.3 8 Sudoeste 17 Sudoeste 0 -- -- 41
2019-08-30 18:00:00 24.7 15 Sudoeste 38 Sudoeste 0 -- -- 44
2019-08-30 17:00:00 25.6 20 Noroeste 46 Oeste 0 -- -- 35
2019-08-30 16:00:00 22.6 20 Sudeste 47 Nordeste 1.2 -- -- 45
2019-08-30 15:00:00 31 14 Oeste 25 Oeste 0 -- -- 28
2019-08-30 14:00:00 31.1 6 Este 20 Noroeste 0 -- -- 29
2019-08-30 13:00:00 30.2 10 Norte 17 Noroeste 0 -- -- 30
2019-08-30 12:00:00 28.6 5 Norte 12 Noroeste 0 -- -- 34
2019-08-30 11:00:00 25.8 2 Norte 9 Noroeste 0 -- -- 40
2019-08-30 10:00:00 21.6 2 Norte 6 Norte 0 -- -- 50
2019-08-30 09:00:00 16.6 0 Calma 3 Noroeste 0 -- -- 65
2019-08-30 08:00:00 12.6 5 Sur 9 Sur 0 -- -- 75
2019-08-30 07:00:00 12.8 5 Sudoeste 12 Sudoeste 0 -- -- 70
2019-08-30 06:00:00 13.4 11 Sudoeste 14 Sudoeste 0 -- -- 71
2019-08-30 05:00:00 13.9 8 Sur 10 Sur 0 -- -- 66
2019-08-30 04:00:00 14.8 3 Sur 7 Sur 0 -- -- 65
2019-08-30 03:00:00 16.3 7 Sudoeste 13 Oeste 0 -- -- 60
2019-08-30 02:00:00 17.3 7 Sudoeste 12 Sudoeste 0 -- -- 55
2019-08-30 01:00:00 21.2 2 Norte 21 Sudeste 0 -- -- 47
2019-08-30 00:00:00 24.2 15 Sudeste 31 Sur 0 -- -- 41
2019-08-29 23:00:00 23.5 12 Sudoeste 22 Sur 0 -- -- 38
2019-08-29 22:00:00 23.9 12 Sudoeste 32 Sudoeste 0 -- -- 43
2019-08-29 21:00:00 25.4 12 Sudoeste 20 Sudoeste 0 -- -- 40
2019-08-29 20:00:00 27.3 10 Sur 16 Sudoeste 0 -- -- 38
2019-08-29 19:00:00 29.8 6 Sudoeste 20 Sudoeste 0 -- -- 31
2019-08-29 18:00:00 30.1 10 Sudoeste 21 Sudoeste 0 -- -- 30
2019-08-29 17:00:00 31.7 8 Sudoeste 26 Noroeste 0 -- -- 28
2019-08-29 16:00:00 30.6 11 Oeste 28 Noroeste 0 -- -- 29
2019-08-29 15:00:00 31 9 Sudeste 29 Oeste 0 -- -- 28
2019-08-29 14:00:00 29.3 14 Oeste 29 Oeste 0 -- -- 31
2019-08-29 13:00:00 29.3 13 Oeste 25 Sudoeste 0 -- -- 31
2019-08-29 12:00:00 27.9 13 Oeste 24 Oeste 0 -- -- 34
2019-08-29 11:00:00 25.2 11 Oeste 19 Oeste 0 -- -- 41
2019-08-29 10:00:00 20.4 3 Nordeste 6 Norte 0 -- -- 52
2019-08-29 09:00:00 15.9 2 Norte 9 Sudoeste 0 -- -- 67
2019-08-29 08:00:00 11.3 7 Sur 9 Sur 0 -- -- 82
2019-08-29 07:00:00 11.6 3 Sudoeste 9 Sudoeste 0 -- -- 79
2019-08-29 06:00:00 12 3 Sudoeste 9 Sudoeste 0 -- -- 77
2019-08-29 05:00:00 12.5 5 Sudoeste 8 Sur 0 -- -- 77
2019-08-29 04:00:00 12.8 5 Sur 10 Sur 0 -- -- 74
2019-08-29 03:00:00 13.9 8 Sudoeste 12 Sur 0 -- -- 71
2019-08-29 02:00:00 14.4 8 Sur 12 Sur 0 -- -- 69
2019-08-29 01:00:00 16.6 2 Nordeste 11 Sur 0 -- -- 61
2019-08-29 00:00:00 18.1 9 Sudoeste 15 Sur 0 -- -- 57
2019-08-28 23:00:00 18.7 11 Sur 15 Sur 0 -- -- 56
2019-08-28 22:00:00 20.3 7 Sur 10 Noroeste 0 -- -- 50
2019-08-28 21:00:00 25.2 8 Noroeste 17 Norte 0 -- -- 37
2019-08-28 20:00:00 27.7 11 Norte 18 Noroeste 0 -- -- 33
2019-08-28 19:00:00 28.6 7 Norte 21 Noroeste 0 -- -- 31
2019-08-28 18:00:00 29 12 Norte 23 Norte 0 -- -- 32
2019-08-28 17:00:00 29 8 Norte 24 Nordeste 0 -- -- 32
2019-08-28 16:00:00 29 9 Oeste 30 Noroeste 0 -- -- 32
2019-08-28 15:00:00 28 11 Norte 22 Oeste 0 -- -- 33
2019-08-28 14:00:00 27.1 7 Este 27 Noroeste 0 -- -- 33
2019-08-28 13:00:00 25.8 4 Norte 20 Sudeste 0 -- -- 36
2019-08-28 12:00:00 24.8 8 Sudoeste 18 Sudoeste 0 -- -- 41
2019-08-28 11:00:00 22.9 7 Oeste 13 Sudoeste 0 -- -- 48
2019-08-28 10:00:00 18.1 2 Nordeste 5 Nordeste 0 -- -- 64
2019-08-28 09:00:00 13.5 3 Nordeste 5 Nordeste 0 -- -- 78
2019-08-28 08:00:00 10.5 2 Sur 6 Sur 0 -- -- 89
2019-08-28 07:00:00 10.3 4 Sur 6 Sudoeste 0 -- -- 86
2019-08-28 06:00:00 10.7 4 Sur 9 Sur 0 -- -- 86
2019-08-28 05:00:00 11.4 2 Sur 8 Sur 0 -- -- 84
2019-08-28 04:00:00 12 4 Sudoeste 13 Sur 0 -- -- 82
2019-08-28 03:00:00 12.3 8 Sudoeste 13 Sudoeste 0 -- -- 81
2019-08-28 02:00:00 13.3 8 Sur 12 Sur 0 -- -- 80
2019-08-28 01:00:00 14.6 10 Sur 12 Sudoeste 0 -- -- 76
2019-08-28 00:00:00 15.9 8 Sur 10 Sur 0 -- -- 71
2019-08-27 23:00:00 17.6 8 Sur 11 Sur 0 -- -- 63
2019-08-27 22:00:00 21.4 4 Oeste 11 Noroeste 0 -- -- 47
2019-08-27 21:00:00 22.8 3 Norte 12 Nordeste 0 -- -- 42
2019-08-27 20:00:00 23 9 Nordeste 15 Nordeste 0 -- -- 47
2019-08-27 19:00:00 23.9 7 Nordeste 16 Oeste 0 -- -- 43
2019-08-27 18:00:00 25.9 6 Oeste 23 Oeste 0 -- -- 38
2019-08-27 17:00:00 25.4 13 Noroeste 20 Oeste 0 -- -- 39
2019-08-27 16:00:00 24.6 9 Norte 18 Norte 0 -- -- 38
2019-08-27 15:00:00 25.8 6 Sudoeste 22 Nordeste 0 -- -- 38
2019-08-27 14:00:00 24.2 8 Norte 19 Noroeste 0 -- -- 41
2019-08-27 13:00:00 23.1 8 Este 16 Norte 0 -- -- 43
2019-08-27 12:00:00 21.6 8 Nordeste 13 Nordeste 0 -- -- 48
2019-08-27 11:00:00 20.2 5 Nordeste 10 Nordeste 0 -- -- 55
2019-08-27 10:00:00 17.9 4 Nordeste 9 Norte 0 -- -- 66
2019-08-27 09:00:00 14.2 3 Sur 8 Sur 0 -- -- 83
2019-08-27 08:00:00 11.8 4 Sudoeste 10 Sur 0 -- -- 86
2019-08-27 07:00:00 13.5 6 Sur 17 Sur 0 -- -- 78
2019-08-27 06:00:00 14 13 Sur 20 Sur 0 -- -- 79
2019-08-27 05:00:00 14.3 5 Sur 14 Sudoeste 0 -- -- 79
2019-08-27 04:00:00 14.2 6 Sudoeste 24 Oeste 0 -- -- 83
2019-08-27 03:00:00 14.9 10 Nordeste 17 Noroeste 0 -- -- 76
2019-08-27 02:00:00 14.6 9 Nordeste 15 Sur 0 -- -- 74
2019-08-27 01:00:00 14.8 10 Sudoeste 31 Sudeste 0.2 -- -- 76
2019-08-27 00:00:00 15.2 10 Sudeste 31 Este 0 -- -- 73
2019-08-26 23:00:00 16.1 10 Sudeste 22 Sudeste 0 -- -- 75
2019-08-26 22:00:00 14.7 15 Sur 29 Sur 0 -- -- 85
2019-08-26 21:00:00 14.8 17 Sudoeste 29 Sudoeste 0 -- -- 87
2019-08-26 20:00:00 16 16 Sudoeste 27 Sudoeste 0.6 -- -- 82
2019-08-26 19:00:00 17.9 10 Sur 63 Sudeste 0.4 -- -- 64
2019-08-26 18:00:00 23.6 19 Sur 35 Sudeste 0 -- -- 44
2019-08-26 17:00:00 26.1 14 Sudeste 29 Sur 0 -- -- 43
2019-08-26 16:00:00 26 13 Sur 28 Sur 0 -- -- 42
2019-08-26 15:00:00 24 13 Sur 24 Sur 0 -- -- 45
2019-08-26 14:00:00 22.8 7 Sur 29 Sudeste 0 -- -- 49
2019-08-26 13:00:00 23.6 22 Sudeste 41 Este 0 -- -- 47
2019-08-26 12:00:00 19.8 20 Este 33 Este 0 -- -- 60
2019-08-26 11:00:00 15.7 7 Este 28 Sudeste 0.8 -- -- 87
2019-08-26 10:00:00 15.7 11 Noroeste 47 Sudoeste 0.8 -- -- 86
2019-08-26 09:00:00 18.1 9 Sudoeste 15 Este 0 -- -- 62
2019-08-26 08:00:00 15.9 4 Oeste 13 Nordeste 0 -- -- 75
2019-08-26 07:00:00 16.2 4 Nordeste 18 Este 0 -- -- 80
2019-08-26 06:00:00 15.9 9 Nordeste 17 Este 0 -- -- 80
2019-08-26 05:00:00 16.6 4 Nordeste 11 Este 0 -- -- 77
2019-08-26 04:00:00 17.9 4 Oeste 11 Sudoeste 0 -- -- 73
2019-08-26 03:00:00 18.4 9 Sudoeste 17 Oeste 0 -- -- 72
2019-08-26 02:00:00 18.9 11 Sudoeste 24 Sudoeste 0 -- -- 71
2019-08-26 01:00:00 20.6 13 Sudoeste 28 Sudoeste 0 -- -- 62
2019-08-26 00:00:00 21.2 3 Sur 13 Sur 0 -- -- 36
2019-08-25 23:00:00 22.1 6 Sudeste 12 Sudeste 0 -- -- 33
2019-08-25 22:00:00 22.6 8 Este 14 Este 0 -- -- 34
2019-08-25 21:00:00 25.4 5 Sur 22 Sur 0 -- -- 29
2019-08-25 20:00:00 28.1 10 Sur 32 Sur 0 -- -- 26
2019-08-25 19:00:00 29.1 16 Sur 33 Sur 0 -- -- 26
2019-08-25 18:00:00 31 14 Sudeste 37 Sur 0 -- -- 24
2019-08-25 17:00:00 32 18 Sur 35 Sur 0 -- -- 21
2019-08-25 16:00:00 31.7 22 Sur 35 Sur 0 -- -- 22
2019-08-25 15:00:00 32.1 18 Sur 32 Sur 0 -- -- 22
2019-08-25 14:00:00 29.9 5 Sudeste 27 Sur 0 -- -- 26
2019-08-25 13:00:00 30.3 10 Nordeste 19 Norte 0 -- -- 26
2019-08-25 12:00:00 29.7 10 Nordeste 16 Nordeste 0 -- -- 28
2019-08-25 11:00:00 27.4 6 Nordeste 15 Nordeste 0 -- -- 32
2019-08-25 10:00:00 23.6 2 Norte 8 Nordeste 0 -- -- 39
2019-08-25 09:00:00 19.2 0 Calma 9 Este 0 -- -- 52
2019-08-25 08:00:00 16.4 4 Nordeste 8 Este 0 -- -- 52
2019-08-25 07:00:00 16.2 2 Nordeste 6 Nordeste 0 -- -- 49
2019-08-25 06:00:00 15.4 3 Sudeste 8 Nordeste 0 -- -- 50
2019-08-25 05:00:00 14.8 5 Norte 13 Norte 0 -- -- 50
2019-08-25 04:00:00 16.3 3 Sudoeste 18 Noroeste 0 -- -- 48
2019-08-25 03:00:00 14.6 4 Sudoeste 10 Oeste 0 -- -- 55
2019-08-25 02:00:00 15.2 5 Sudoeste 10 Sur 0 -- -- 51
2019-08-25 01:00:00 16.6 9 Sudoeste 12 Sudoeste 0 -- -- 46
2019-08-25 00:00:00 19.1 0 Calma 14 Norte 0 -- -- 39
2019-08-24 23:00:00 19.8 8 Sur 13 Sur 0 -- -- 40
2019-08-24 22:00:00 20.8 10 Sur 13 Sur 0 -- -- 37
2019-08-24 21:00:00 25.9 0 Calma 10 Nordeste 0 -- -- 27
2019-08-24 20:00:00 30.1 6 Nordeste 17 Nordeste 0 -- -- 22
2019-08-24 19:00:00 31.2 11 Norte 25 Noroeste 0 -- -- 21
2019-08-24 18:00:00 31.3 14 Nordeste 27 Noroeste 0 -- -- 21
2019-08-24 17:00:00 31.4 13 Nordeste 26 Nordeste 0 -- -- 21
2019-08-24 16:00:00 31.7 9 Este 31 Norte 0 -- -- 21
2019-08-24 15:00:00 30.9 7 Norte 32 Norte 0 -- -- 22
2019-08-24 14:00:00 30.8 14 Norte 31 Norte 0 -- -- 22
2019-08-24 13:00:00 29.8 10 Oeste 19 Noroeste 0 -- -- 22
2019-08-24 12:00:00 27.8 5 Noroeste 12 Noroeste 0 -- -- 27
2019-08-24 11:00:00 24.1 6 Norte 10 Norte 0 -- -- 33
2019-08-24 10:00:00 20.6 8 Norte 10 Norte 0 -- -- 37
2019-08-24 09:00:00 15.3 0 Calma 10 Sudoeste 0 -- -- 56
2019-08-24 08:00:00 9.5 8 Sudoeste 10 Sur 0 -- -- 65
2019-08-24 07:00:00 9.6 5 Sudoeste 10 Sur 0 -- -- 63
2019-08-24 06:00:00 10.5 4 Sur 7 Sur 0 -- -- 59
2019-08-24 05:00:00 11.9 3 Nordeste 10 Sur 0 -- -- 53
2019-08-24 04:00:00 12.1 8 Sudoeste 10 Sudoeste 0 -- -- 54
2019-08-24 03:00:00 13.4 8 Sudoeste 14 Sudoeste 0 -- -- 51
2019-08-24 02:00:00 14.6 11 Sudoeste 14 Sudoeste 0 -- -- 48
2019-08-24 01:00:00 16.2 3 Sur 12 Sur 0 -- -- 43
2019-08-24 00:00:00 17.7 9 Sudoeste 14 Sur 0 -- -- 42
2019-08-23 23:00:00 19.4 11 Sudoeste 14 Sudoeste 0 -- -- 37
2019-08-23 22:00:00 20.6 11 Sudoeste 17 Sudoeste 0 -- -- 34
2019-08-23 21:00:00 26.4 0 Calma 12 Nordeste 0 -- -- 23
2019-08-23 20:00:00 29.5 6 Norte 13 Nordeste 0 -- -- 20
2019-08-23 19:00:00 31.4 4 Noroeste 22 Sudoeste 0 -- -- 18
2019-08-23 18:00:00 31.9 4 Nordeste 24 Sudoeste 0 -- -- 18
2019-08-23 17:00:00 31.1 7 Norte 28 Oeste 0 -- -- 18
2019-08-23 16:00:00 31.3 8 Noroeste 25 Noroeste 0 -- -- 19
2019-08-23 15:00:00 30 9 Noroeste 23 Noroeste 0 -- -- 22
2019-08-23 14:00:00 28.9 7 Sur 26 Norte 0 -- -- 24
2019-08-23 13:00:00 28.3 8 Noroeste 18 Norte 0 -- -- 26
2019-08-23 12:00:00 25.8 8 Nordeste 15 Nordeste 0 -- -- 33
2019-08-23 11:00:00 22.3 7 Nordeste 13 Nordeste 0 -- -- 37
2019-08-23 10:00:00 18.9 4 Nordeste 7 Nordeste 0 -- -- 41
2019-08-23 09:00:00 13.6 0 Calma 8 Sudoeste 0 -- -- 56
2019-08-23 08:00:00 8.3 7 Sudoeste 9 Sudoeste 0 -- -- 69
2019-08-23 07:00:00 8.2 4 Sudoeste 9 Sudoeste 0 -- -- 65
2019-08-23 06:00:00 8.8 5 Sudoeste 10 Sudoeste 0 -- -- 62
2019-08-23 05:00:00 9.3 4 Sudoeste 13 Sur 0 -- -- 58
2019-08-23 04:00:00 9.8 8 Sur 12 Sudoeste 0 -- -- 54
2019-08-23 03:00:00 10.6 7 Sudoeste 12 Sudoeste 0 -- -- 50
2019-08-23 02:00:00 11.5 5 Sur 13 Sudoeste 0 -- -- 47
2019-08-23 01:00:00 13.2 8 Sudoeste 13 Sudoeste 0 -- -- 41
2019-08-23 00:00:00 16.8 0 Calma 17 Sudeste 0 -- -- 31
2019-08-22 23:00:00 22.7 13 Sudeste 23 Sudeste 0 -- -- 25
2019-08-22 22:00:00 22.7 13 Sudeste 21 Sudeste 0 -- -- 22
2019-08-22 21:00:00 25.7 13 Este 21 Este 0 -- -- 20
2019-08-22 20:00:00 27.9 12 Nordeste 19 Nordeste 0 -- -- 17
2019-08-22 19:00:00 28.8 10 Norte 21 Norte 0 -- -- 18
2019-08-22 18:00:00 28.7 12 Nordeste 21 Nordeste 0 -- -- 17
2019-08-22 17:00:00 28.9 7 Norte 21 Norte 0 -- -- 18
2019-08-22 16:00:00 27.9 9 Nordeste 20 Nordeste 0 -- -- 18
2019-08-22 15:00:00 27.5 7 Noroeste 18 Nordeste 0 -- -- 19
2019-08-22 14:00:00 26.3 10 Norte 21 Noroeste 0 -- -- 23
2019-08-22 13:00:00 24.8 8 Norte 21 Norte 0 -- -- 36
2019-08-22 12:00:00 23.3 10 Norte 18 Norte 0 -- -- 43
2019-08-22 11:00:00 21.3 6 Nordeste 12 Norte 0 -- -- 51
2019-08-22 10:00:00 18.1 4 Norte 8 Norte 0 -- -- 65
2019-08-22 09:00:00 12.4 0 Calma 7 Sudoeste 0 -- -- 86
2019-08-22 08:00:00 8 6 Sudoeste 10 Sudoeste 0 -- -- 90
2019-08-22 07:00:00 8.2 8 Sudoeste 11 Sudoeste 0 -- -- 89
2019-08-22 06:00:00 8.8 9 Sudoeste 12 Sudoeste 0 -- -- 90
2019-08-22 05:00:00 9.1 8 Sudoeste 11 Sudoeste 0 -- -- 90
2019-08-22 04:00:00 10 8 Sudoeste 10 Sudoeste 0 -- -- 86
2019-08-22 03:00:00 11.2 3 Sur 8 Sudoeste 0 -- -- 83
2019-08-22 02:00:00 12.6 5 Sudoeste 9 Sudoeste 0 -- -- 78
2019-08-22 01:00:00 16.2 0 Calma 15 Oeste 0 -- -- 69
2019-08-22 00:00:00 17.8 8 Este 22 Este 0 -- -- 67
2019-08-21 23:00:00 19.6 11 Este 18 Nordeste 0 -- -- 65
2019-08-21 22:00:00 21.4 13 Este 27 Nordeste 0 -- -- 59
2019-08-21 21:00:00 23.9 13 Norte 28 Norte 0 -- -- 33
2019-08-21 20:00:00 26.5 18 Norte 30 Norte 0 -- -- 30
2019-08-21 19:00:00 27.9 15 Noroeste 35 Noroeste 0 -- -- 25
2019-08-21 18:00:00 27.2 15 Noroeste 26 Norte 0 -- -- 29
2019-08-21 17:00:00 28 13 Noroeste 26 Noroeste 0 -- -- 31
2019-08-21 16:00:00 27 14 Norte 22 Norte 0 -- -- 35
2019-08-21 15:00:00 28 11 Nordeste 20 Norte 0 -- -- 30
2019-08-21 14:00:00 26 5 Norte 16 Nordeste 0 -- -- 42
2019-08-21 13:00:00 26.7 7 Norte 19 Nordeste 0 -- -- 42
2019-08-21 12:00:00 23.8 5 Nordeste 13 Nordeste 0 -- -- 53
2019-08-21 11:00:00 20 10 Norte 14 Norte 0 -- -- 63
2019-08-21 10:00:00 16.8 3 Este 6 Norte 0 -- -- 72
2019-08-21 09:00:00 12.8 0 Calma 7 Sudoeste 0 -- -- 86
2019-08-21 08:00:00 10.5 5 Sudoeste 8 Sudoeste 0 -- -- 89
2019-08-21 07:00:00 10.2 4 Sur 8 Sur 0 -- -- 88
2019-08-21 06:00:00 10.7 6 Sudoeste 9 Sur 0 -- -- 87
2019-08-21 05:00:00 11.8 5 Sur 10 Sudoeste 0 -- -- 83
2019-08-21 04:00:00 15.2 4 Nordeste 14 Nordeste 0 -- -- 74
2019-08-21 03:00:00 16 8 Nordeste 22 Este 0 -- -- 71
2019-08-21 02:00:00 16 11 Este 31 Este 0 -- -- 70
2019-08-21 01:00:00 16.6 18 Este 39 Este 0 -- -- 69
2019-08-21 00:00:00 17.2 19 Este 37 Este 0 -- -- 66